sensor_id;sensor_type;location;lat;lon;timestamp;pressure;altitude;pressure_sealevel;temperature;humidity
76680;BME280;65597;51.520;-0.224;2022-12-11T00:00:12;100906.63;;;2.73;38.02
76680;BME280;65597;51.520;-0.224;2022-12-11T00:02:37;100906.67;;;2.54;37.80
76680;BME280;65597;51.520;-0.224;2022-12-11T00:05:03;100904.51;;;2.60;38.01
76680;BME280;65597;51.520;-0.224;2022-12-11T00:07:28;100904.48;;;2.58;38.08
76680;BME280;65597;51.520;-0.224;2022-12-11T00:09:54;100905.21;;;2.53;38.15
76680;BME280;65597;51.520;-0.224;2022-12-11T00:12:20;100904.44;;;2.84;38.11
76680;BME280;65597;51.520;-0.224;2022-12-11T00:14:46;100905.51;;;2.79;38.09
76680;BME280;65597;51.520;-0.224;2022-12-11T00:17:11;100908.25;;;2.63;38.58
76680;BME280;65597;51.520;-0.224;2022-12-11T00:19:37;100903.64;;;2.36;38.91
76680;BME280;65597;51.520;-0.224;2022-12-11T00:22:02;100900.60;;;2.64;38.69
76680;BME280;65597;51.520;-0.224;2022-12-11T00:24:28;100899.78;;;2.39;38.64
76680;BME280;65597;51.520;-0.224;2022-12-11T00:26:54;100901.05;;;2.58;38.60
76680;BME280;65597;51.520;-0.224;2022-12-11T00:29:19;100899.05;;;2.63;38.61
76680;BME280;65597;51.520;-0.224;2022-12-11T00:31:45;100898.41;;;2.64;38.67
76680;BME280;65597;51.520;-0.224;2022-12-11T00:34:10;100892.36;;;2.65;38.57
76680;BME280;65597;51.520;-0.224;2022-12-11T00:36:37;100891.52;;;2.65;38.46
76680;BME280;65597;51.520;-0.224;2022-12-11T00:39:03;100887.10;;;2.59;38.51
76680;BME280;65597;51.520;-0.224;2022-12-11T00:41:27;100884.62;;;2.57;38.65
76680;BME280;65597;51.520;-0.224;2022-12-11T00:43:53;100887.73;;;2.56;38.80
76680;BME280;65597;51.520;-0.224;2022-12-11T00:46:19;100886.35;;;2.52;38.53
76680;BME280;65597;51.520;-0.224;2022-12-11T00:48:44;100886.78;;;2.50;38.46
76680;BME280;65597;51.520;-0.224;2022-12-11T00:51:09;100885.28;;;2.51;38.18
76680;BME280;65597;51.520;-0.224;2022-12-11T00:53:34;100882.46;;;2.49;38.17
76680;BME280;65597;51.520;-0.224;2022-12-11T00:56:00;100879.33;;;2.36;38.18
76680;BME280;65597;51.520;-0.224;2022-12-11T00:58:26;100877.05;;;2.25;38.32
76680;BME280;65597;51.520;-0.224;2022-12-11T01:00:51;100872.25;;;2.38;38.09
76680;BME280;65597;51.520;-0.224;2022-12-11T01:03:16;100871.93;;;2.32;38.16
76680;BME280;65597;51.520;-0.224;2022-12-11T01:05:50;100874.23;;;2.35;37.96
76680;BME280;65597;51.520;-0.224;2022-12-11T01:08:08;100876.08;;;2.19;38.10
76680;BME280;65597;51.520;-0.224;2022-12-11T01:10:33;100874.66;;;2.41;37.84
76680;BME280;65597;51.520;-0.224;2022-12-11T01:13:00;100868.10;;;2.38;37.90
76680;BME280;65597;51.520;-0.224;2022-12-11T01:15:26;100868.32;;;2.35;37.71
76680;BME280;65597;51.520;-0.224;2022-12-11T01:17:50;100868.07;;;2.39;37.82
76680;BME280;65597;51.520;-0.224;2022-12-11T01:20:15;100865.60;;;2.34;37.98
76680;BME280;65597;51.520;-0.224;2022-12-11T01:22:40;100862.82;;;2.34;38.08
76680;BME280;65597;51.520;-0.224;2022-12-11T01:25:06;100862.64;;;2.39;38.13
76680;BME280;65597;51.520;-0.224;2022-12-11T01:27:31;100861.48;;;2.37;37.75
76680;BME280;65597;51.520;-0.224;2022-12-11T01:29:57;100858.74;;;2.39;37.75
76680;BME280;65597;51.520;-0.224;2022-12-11T01:32:22;100858.02;;;2.36;37.63
76680;BME280;65597;51.520;-0.224;2022-12-11T01:34:48;100854.65;;;2.35;37.75
76680;BME280;65597;51.520;-0.224;2022-12-11T01:37:13;100854.83;;;2.34;37.99
76680;BME280;65597;51.520;-0.224;2022-12-11T01:39:39;100856.55;;;2.05;38.14
76680;BME280;65597;51.520;-0.224;2022-12-11T01:42:04;100856.08;;;2.24;38.20
76680;BME280;65597;51.520;-0.224;2022-12-11T01:46:54;100851.37;;;2.16;38.58
76680;BME280;65597;51.520;-0.224;2022-12-11T01:49:21;100851.24;;;2.16;38.60
76680;BME280;65597;51.520;-0.224;2022-12-11T01:51:50;100852.14;;;2.11;38.68
76680;BME280;65597;51.520;-0.224;2022-12-11T01:54:11;100855.70;;;2.12;38.69
76680;BME280;65597;51.520;-0.224;2022-12-11T01:56:37;100865.06;;;2.12;38.85
76680;BME280;65597;51.520;-0.224;2022-12-11T01:59:04;100873.78;;;2.10;38.68
76680;BME280;65597;51.520;-0.224;2022-12-11T02:01:31;100879.92;;;2.02;38.05
76680;BME280;65597;51.520;-0.224;2022-12-11T02:03:53;100877.11;;;1.75;39.08
76680;BME280;65597;51.520;-0.224;2022-12-11T02:06:29;100875.14;;;2.15;39.33
76680;BME280;65597;51.520;-0.224;2022-12-11T02:08:43;100876.78;;;2.19;38.85
76680;BME280;65597;51.520;-0.224;2022-12-11T02:11:12;100876.51;;;1.98;38.69
76680;BME280;65597;51.520;-0.224;2022-12-11T02:13:41;100873.70;;;1.84;38.71
76680;BME280;65597;51.520;-0.224;2022-12-11T02:16:05;100871.29;;;2.05;38.71
76680;BME280;65597;51.520;-0.224;2022-12-11T02:18:30;100870.17;;;1.85;38.63
76680;BME280;65597;51.520;-0.224;2022-12-11T02:20:57;100871.20;;;2.11;38.61
76680;BME280;65597;51.520;-0.224;2022-12-11T02:23:33;100871.42;;;1.86;38.69
76680;BME280;65597;51.520;-0.224;2022-12-11T02:25:47;100870.27;;;1.78;38.85
76680;BME280;65597;51.520;-0.224;2022-12-11T02:28:13;100870.32;;;1.83;38.75
76680;BME280;65597;51.520;-0.224;2022-12-11T02:30:33;100871.34;;;1.88;38.68
76680;BME280;65597;51.520;-0.224;2022-12-11T02:32:58;100868.11;;;2.09;38.75
76680;BME280;65597;51.520;-0.224;2022-12-11T02:35:27;100862.64;;;1.98;38.78
76680;BME280;65597;51.520;-0.224;2022-12-11T02:37:55;100860.24;;;1.96;38.70
76680;BME280;65597;51.520;-0.224;2022-12-11T02:40:18;100856.01;;;1.76;38.71
76680;BME280;65597;51.520;-0.224;2022-12-11T02:42:42;100859.51;;;1.93;38.60
76680;BME280;65597;51.520;-0.224;2022-12-11T02:45:07;100865.02;;;1.96;39.02
76680;BME280;65597;51.520;-0.224;2022-12-11T02:47:32;100861.41;;;1.78;38.91
76680;BME280;65597;51.520;-0.224;2022-12-11T02:49:57;100858.81;;;1.84;39.52
76680;BME280;65597;51.520;-0.224;2022-12-11T02:52:22;100858.77;;;1.94;39.17
76680;BME280;65597;51.520;-0.224;2022-12-11T02:54:48;100855.89;;;1.98;38.81
76680;BME280;65597;51.520;-0.224;2022-12-11T02:57:16;100853.42;;;2.20;38.50
76680;BME280;65597;51.520;-0.224;2022-12-11T02:59:40;100844.74;;;2.23;38.43
76680;BME280;65597;51.520;-0.224;2022-12-11T03:02:03;100842.48;;;1.98;38.46
76680;BME280;65597;51.520;-0.224;2022-12-11T03:04:29;100840.48;;;2.24;38.30
76680;BME280;65597;51.520;-0.224;2022-12-11T03:06:58;100843.78;;;1.92;38.56
76680;BME280;65597;51.520;-0.224;2022-12-11T03:09:20;100844.43;;;1.90;38.70
76680;BME280;65597;51.520;-0.224;2022-12-11T03:11:45;100846.60;;;1.90;38.79
76680;BME280;65597;51.520;-0.224;2022-12-11T03:14:11;100845.34;;;1.88;38.47
76680;BME280;65597;51.520;-0.224;2022-12-11T03:16:38;100843.92;;;1.93;38.42
76680;BME280;65597;51.520;-0.224;2022-12-11T03:19:10;100838.75;;;1.60;38.48
76680;BME280;65597;51.520;-0.224;2022-12-11T03:21:32;100836.60;;;1.62;38.13
76680;BME280;65597;51.520;-0.224;2022-12-11T03:23:56;100832.35;;;1.91;38.01
76680;BME280;65597;51.520;-0.224;2022-12-11T03:26:18;100827.00;;;1.94;38.07
76680;BME280;65597;51.520;-0.224;2022-12-11T03:28:46;100822.60;;;1.94;38.14
76680;BME280;65597;51.520;-0.224;2022-12-11T03:31:12;100820.81;;;1.89;38.14
76680;BME280;65597;51.520;-0.224;2022-12-11T03:33:36;100821.35;;;1.91;38.11
76680;BME280;65597;51.520;-0.224;2022-12-11T03:36:02;100820.56;;;1.93;38.07
76680;BME280;65597;51.520;-0.224;2022-12-11T03:38:28;100817.13;;;1.93;38.25
76680;BME280;65597;51.520;-0.224;2022-12-11T03:40:53;100813.85;;;1.89;38.52
76680;BME280;65597;51.520;-0.224;2022-12-11T03:43:16;100809.42;;;1.92;38.20
76680;BME280;65597;51.520;-0.224;2022-12-11T03:45:41;100809.89;;;1.68;38.09
76680;BME280;65597;51.520;-0.224;2022-12-11T03:48:08;100806.61;;;1.89;37.69
76680;BME280;65597;51.520;-0.224;2022-12-11T03:50:33;100801.52;;;1.88;37.77
76680;BME280;65597;51.520;-0.224;2022-12-11T03:52:57;100797.35;;;1.82;37.90
76680;BME280;65597;51.520;-0.224;2022-12-11T03:55:23;100793.26;;;1.89;37.88
76680;BME280;65597;51.520;-0.224;2022-12-11T03:57:47;100797.80;;;1.49;38.25
76680;BME280;65597;51.520;-0.224;2022-12-11T04:00:16;100797.47;;;1.71;38.59
76680;BME280;65597;51.520;-0.224;2022-12-11T04:02:39;100803.43;;;1.52;38.35
76680;BME280;65597;51.520;-0.224;2022-12-11T04:05:04;100807.53;;;1.79;38.16
76680;BME280;65597;51.520;-0.224;2022-12-11T04:07:29;100809.44;;;1.97;38.05
76680;BME280;65597;51.520;-0.224;2022-12-11T04:09:55;100810.33;;;1.49;37.93
76680;BME280;65597;51.520;-0.224;2022-12-11T04:12:20;100811.71;;;1.69;37.89
76680;BME280;65597;51.520;-0.224;2022-12-11T04:14:46;100810.67;;;1.27;38.15
76680;BME280;65597;51.520;-0.224;2022-12-11T04:17:12;100808.98;;;1.61;37.98
76680;BME280;65597;51.520;-0.224;2022-12-11T04:19:38;100812.83;;;1.65;37.98
76680;BME280;65597;51.520;-0.224;2022-12-11T04:22:03;100814.85;;;1.39;37.85
76680;BME280;65597;51.520;-0.224;2022-12-11T04:24:29;100812.13;;;1.42;37.80
76680;BME280;65597;51.520;-0.224;2022-12-11T04:26:55;100814.42;;;1.66;38.10
76680;BME280;65597;51.520;-0.224;2022-12-11T04:29:20;100814.50;;;1.68;38.00
76680;BME280;65597;51.520;-0.224;2022-12-11T04:31:46;100810.77;;;1.83;37.87
76680;BME280;65597;51.520;-0.224;2022-12-11T04:34:11;100809.76;;;1.78;37.81
76680;BME280;65597;51.520;-0.224;2022-12-11T04:36:37;100808.75;;;1.63;37.63
76680;BME280;65597;51.520;-0.224;2022-12-11T04:39:03;100807.49;;;1.83;37.74
76680;BME280;65597;51.520;-0.224;2022-12-11T04:41:28;100803.53;;;1.80;37.87
76680;BME280;65597;51.520;-0.224;2022-12-11T04:43:53;100803.85;;;1.58;37.85
76680;BME280;65597;51.520;-0.224;2022-12-11T04:46:20;100799.27;;;1.57;37.63
76680;BME280;65597;51.520;-0.224;2022-12-11T04:48:44;100797.08;;;1.60;37.78
76680;BME280;65597;51.520;-0.224;2022-12-11T04:51:09;100791.38;;;1.83;37.93
76680;BME280;65597;51.520;-0.224;2022-12-11T04:53:35;100785.55;;;1.58;37.92
76680;BME280;65597;51.520;-0.224;2022-12-11T04:56:03;100783.16;;;1.79;38.00
76680;BME280;65597;51.520;-0.224;2022-12-11T04:58:26;100782.33;;;1.56;38.13
76680;BME280;65597;51.520;-0.224;2022-12-11T05:00:52;100783.49;;;1.82;37.94
76680;BME280;65597;51.520;-0.224;2022-12-11T05:03:17;100783.60;;;1.36;37.97
76680;BME280;65597;51.520;-0.224;2022-12-11T05:05:46;100783.47;;;1.59;38.15
76680;BME280;65597;51.520;-0.224;2022-12-11T05:08:07;100782.30;;;1.57;38.09
76680;BME280;65597;51.520;-0.224;2022-12-11T05:10:33;100780.31;;;1.54;38.02
76680;BME280;65597;51.520;-0.224;2022-12-11T05:12:58;100779.36;;;1.53;38.13
76680;BME280;65597;51.520;-0.224;2022-12-11T05:15:24;100770.16;;;1.77;38.12
76680;BME280;65597;51.520;-0.224;2022-12-11T05:17:49;100770.37;;;1.62;37.93
76680;BME280;65597;51.520;-0.224;2022-12-11T05:20:14;100768.59;;;1.51;37.69
76680;BME280;65597;51.520;-0.224;2022-12-11T05:22:39;100765.18;;;1.55;37.58
76680;BME280;65597;51.520;-0.224;2022-12-11T05:25:06;100765.41;;;1.45;37.48
76680;BME280;65597;51.520;-0.224;2022-12-11T05:27:30;100766.75;;;1.43;37.42
76680;BME280;65597;51.520;-0.224;2022-12-11T05:29:56;100766.50;;;1.66;37.63
76680;BME280;65597;51.520;-0.224;2022-12-11T05:32:21;100768.47;;;1.29;38.04
76680;BME280;65597;51.520;-0.224;2022-12-11T05:34:46;100768.75;;;1.62;38.07
76680;BME280;65597;51.520;-0.224;2022-12-11T05:37:11;100766.71;;;1.37;38.02
76680;BME280;65597;51.520;-0.224;2022-12-11T05:39:38;100765.49;;;1.54;38.11
76680;BME280;65597;51.520;-0.224;2022-12-11T05:42:03;100767.86;;;1.45;37.74
76680;BME280;65597;51.520;-0.224;2022-12-11T05:44:28;100771.40;;;1.19;37.62
76680;BME280;65597;51.520;-0.224;2022-12-11T05:46:53;100770.53;;;1.44;37.44
76680;BME280;65597;51.520;-0.224;2022-12-11T05:49:19;100765.26;;;1.70;37.27
76680;BME280;65597;51.520;-0.224;2022-12-11T05:51:45;100766.19;;;1.61;37.37
76680;BME280;65597;51.520;-0.224;2022-12-11T05:54:10;100768.22;;;1.29;37.51
76680;BME280;65597;51.520;-0.224;2022-12-11T05:56:36;100768.80;;;1.62;37.35
76680;BME280;65597;51.520;-0.224;2022-12-11T05:59:02;100767.09;;;1.61;37.43
76680;BME280;65597;51.520;-0.224;2022-12-11T06:01:29;100765.93;;;1.58;37.59
76680;BME280;65597;51.520;-0.224;2022-12-11T06:03:52;100767.12;;;1.30;37.60
76680;BME280;65597;51.520;-0.224;2022-12-11T06:06:17;100766.14;;;1.46;37.64
76680;BME280;65597;51.520;-0.224;2022-12-11T06:08:42;100766.66;;;1.35;38.09
76680;BME280;65597;51.520;-0.224;2022-12-11T06:11:12;100763.47;;;1.53;37.96
76680;BME280;65597;51.520;-0.224;2022-12-11T06:13:34;100760.96;;;1.38;38.25
76680;BME280;65597;51.520;-0.224;2022-12-11T06:16:00;100758.41;;;1.21;38.33
76680;BME280;65597;51.520;-0.224;2022-12-11T06:18:25;100755.01;;;1.42;38.25
76680;BME280;65597;51.520;-0.224;2022-12-11T06:20:50;100754.33;;;1.57;37.82
76680;BME280;65597;51.520;-0.224;2022-12-11T06:23:15;100753.21;;;1.56;37.95
76680;BME280;65597;51.520;-0.224;2022-12-11T06:25:41;100748.63;;;1.58;38.10
76680;BME280;65597;51.520;-0.224;2022-12-11T06:28:06;100748.27;;;1.40;38.36
76680;BME280;65597;51.520;-0.224;2022-12-11T06:30:32;100750.11;;;1.25;38.48
76680;BME280;65597;51.520;-0.224;2022-12-11T06:32:58;100748.17;;;1.51;38.66
76680;BME280;65597;51.520;-0.224;2022-12-11T06:35:24;100747.51;;;1.36;39.04
76680;BME280;65597;51.520;-0.224;2022-12-11T06:37:49;100747.44;;;1.31;38.77
76680;BME280;65597;51.520;-0.224;2022-12-11T06:40:14;100755.04;;;1.54;39.05
76680;BME280;65597;51.520;-0.224;2022-12-11T06:42:39;100760.21;;;1.37;39.00
76680;BME280;65597;51.520;-0.224;2022-12-11T06:45:06;100759.90;;;1.54;39.22
76680;BME280;65597;51.520;-0.224;2022-12-11T06:47:31;100755.37;;;1.28;39.52
76680;BME280;65597;51.520;-0.224;2022-12-11T06:49:56;100754.56;;;1.56;39.69
76680;BME280;65597;51.520;-0.224;2022-12-11T06:52:22;100755.40;;;1.53;39.93
76680;BME280;65597;51.520;-0.224;2022-12-11T06:54:47;100755.22;;;1.51;39.99
76680;BME280;65597;51.520;-0.224;2022-12-11T06:57:12;100757.45;;;1.34;40.01
76680;BME280;65597;51.520;-0.224;2022-12-11T06:59:38;100760.42;;;1.59;40.01
76680;BME280;65597;51.520;-0.224;2022-12-11T07:02:04;100765.52;;;1.37;40.34
76680;BME280;65597;51.520;-0.224;2022-12-11T07:04:29;100769.37;;;1.63;40.54
76680;BME280;65597;51.520;-0.224;2022-12-11T07:06:55;100770.96;;;1.14;40.62
76680;BME280;65597;51.520;-0.224;2022-12-11T07:09:21;100768.94;;;1.61;41.14
76680;BME280;65597;51.520;-0.224;2022-12-11T07:11:48;100764.75;;;1.48;41.34
76680;BME280;65597;51.520;-0.224;2022-12-11T07:14:11;100763.01;;;1.59;41.34
76680;BME280;65597;51.520;-0.224;2022-12-11T07:16:36;100762.32;;;1.32;41.47
76680;BME280;65597;51.520;-0.224;2022-12-11T07:19:03;100760.11;;;1.53;41.51
76680;BME280;65597;51.520;-0.224;2022-12-11T07:21:27;100757.18;;;1.51;41.69
76680;BME280;65597;51.520;-0.224;2022-12-11T07:23:52;100755.37;;;1.33;41.59
76680;BME280;65597;51.520;-0.224;2022-12-11T07:26:20;100751.44;;;1.67;41.55
76680;BME280;65597;51.520;-0.224;2022-12-11T07:28:43;100746.75;;;1.44;41.61
76680;BME280;65597;51.520;-0.224;2022-12-11T07:31:10;100745.23;;;1.70;41.56
76680;BME280;65597;51.520;-0.224;2022-12-11T07:33:34;100748.48;;;1.36;41.79
76680;BME280;65597;51.520;-0.224;2022-12-11T07:36:00;100753.26;;;1.40;41.70
76680;BME280;65597;51.520;-0.224;2022-12-11T07:38:24;100755.63;;;1.51;41.70
76680;BME280;65597;51.520;-0.224;2022-12-11T07:40:50;100760.48;;;1.36;42.38
76680;BME280;65597;51.520;-0.224;2022-12-11T07:43:16;100759.52;;;1.50;42.30
76680;BME280;65597;51.520;-0.224;2022-12-11T07:45:42;100756.41;;;1.10;42.23
76680;BME280;65597;51.520;-0.224;2022-12-11T07:48:07;100756.37;;;1.61;42.17
76680;BME280;65597;51.520;-0.224;2022-12-11T07:50:33;100760.43;;;1.65;42.07
76680;BME280;65597;51.520;-0.224;2022-12-11T07:52:58;100755.42;;;1.67;42.12
76680;BME280;65597;51.520;-0.224;2022-12-11T07:55:24;100757.48;;;1.44;42.07
76680;BME280;65597;51.520;-0.224;2022-12-11T07:57:50;100756.98;;;1.69;42.16
76680;BME280;65597;51.520;-0.224;2022-12-11T08:00:16;100757.91;;;1.27;42.84
76680;BME280;65597;51.520;-0.224;2022-12-11T08:02:41;100757.59;;;1.22;42.89
76680;BME280;65597;51.520;-0.224;2022-12-11T08:05:07;100762.92;;;1.25;42.64
76680;BME280;65597;51.520;-0.224;2022-12-11T08:07:33;100764.06;;;1.63;42.38
76680;BME280;65597;51.520;-0.224;2022-12-11T08:09:58;100761.02;;;1.29;42.55
76680;BME280;65597;51.520;-0.224;2022-12-11T08:12:23;100758.80;;;1.60;42.52
76680;BME280;65597;51.520;-0.224;2022-12-11T08:14:48;100758.92;;;1.36;42.65
76680;BME280;65597;51.520;-0.224;2022-12-11T08:17:14;100757.94;;;1.16;43.01
76680;BME280;65597;51.520;-0.224;2022-12-11T08:19:40;100761.50;;;1.27;42.89
76680;BME280;65597;51.520;-0.224;2022-12-11T08:22:05;100764.51;;;1.61;42.81
76680;BME280;65597;51.520;-0.224;2022-12-11T08:24:31;100765.16;;;1.52;42.95
76680;BME280;65597;51.520;-0.224;2022-12-11T08:26:57;100764.26;;;1.36;42.91
76680;BME280;65597;51.520;-0.224;2022-12-11T08:29:22;100767.70;;;1.38;42.88
76680;BME280;65597;51.520;-0.224;2022-12-11T08:31:48;100767.30;;;1.46;42.76
76680;BME280;65597;51.520;-0.224;2022-12-11T08:34:13;100764.21;;;1.49;42.77
76680;BME280;65597;51.520;-0.224;2022-12-11T08:36:39;100759.10;;;1.76;42.71
76680;BME280;65597;51.520;-0.224;2022-12-11T08:39:05;100755.67;;;1.66;42.84
76680;BME280;65597;51.520;-0.224;2022-12-11T08:41:30;100753.35;;;1.17;42.84
76680;BME280;65597;51.520;-0.224;2022-12-11T08:43:56;100745.94;;;1.81;42.57
76680;BME280;65597;51.520;-0.224;2022-12-11T08:46:22;100743.87;;;1.90;42.55
76680;BME280;65597;51.520;-0.224;2022-12-11T08:48:46;100745.36;;;1.71;42.55
76680;BME280;65597;51.520;-0.224;2022-12-11T08:51:14;100747.22;;;1.73;42.48
76680;BME280;65597;51.520;-0.224;2022-12-11T08:53:37;100753.37;;;1.60;42.39
76680;BME280;65597;51.520;-0.224;2022-12-11T08:56:05;100760.06;;;1.79;42.37
76680;BME280;65597;51.520;-0.224;2022-12-11T08:58:29;100766.07;;;1.89;42.26
76680;BME280;65597;51.520;-0.224;2022-12-11T09:00:55;100769.12;;;1.82;42.44
76680;BME280;65597;51.520;-0.224;2022-12-11T09:03:20;100771.92;;;1.67;42.42
76680;BME280;65597;51.520;-0.224;2022-12-11T09:05:45;100771.77;;;1.69;42.49
76680;BME280;65597;51.520;-0.224;2022-12-11T09:08:11;100768.00;;;1.95;42.52
76680;BME280;65597;51.520;-0.224;2022-12-11T09:10:37;100765.15;;;1.53;42.89
76680;BME280;65597;51.520;-0.224;2022-12-11T09:13:02;100764.98;;;1.99;42.55
76680;BME280;65597;51.520;-0.224;2022-12-11T09:15:28;100762.52;;;1.71;42.83
76680;BME280;65597;51.520;-0.224;2022-12-11T09:17:53;100763.00;;;1.82;42.64
76680;BME280;65597;51.520;-0.224;2022-12-11T09:20:19;100758.37;;;1.88;42.96
76680;BME280;65597;51.520;-0.224;2022-12-11T09:22:44;100755.80;;;2.26;42.83
76680;BME280;65597;51.520;-0.224;2022-12-11T09:25:10;100755.46;;;1.82;42.74
76680;BME280;65597;51.520;-0.224;2022-12-11T09:27:35;100756.74;;;2.10;42.64
76680;BME280;65597;51.520;-0.224;2022-12-11T09:30:00;100763.71;;;1.75;42.85
76680;BME280;65597;51.520;-0.224;2022-12-11T09:32:26;100765.99;;;2.04;42.80
76680;BME280;65597;51.520;-0.224;2022-12-11T09:34:52;100767.83;;;1.79;42.81
76680;BME280;65597;51.520;-0.224;2022-12-11T09:37:18;100766.89;;;1.81;42.90
76680;BME280;65597;51.520;-0.224;2022-12-11T09:39:43;100764.88;;;1.92;42.71
76680;BME280;65597;51.520;-0.224;2022-12-11T09:42:13;100764.02;;;2.37;42.81
76680;BME280;65597;51.520;-0.224;2022-12-11T09:44:39;100763.22;;;2.26;42.45
76680;BME280;65597;51.520;-0.224;2022-12-11T09:47:00;100761.50;;;1.95;42.53
76680;BME280;65597;51.520;-0.224;2022-12-11T09:49:33;100762.59;;;1.91;42.41
76680;BME280;65597;51.520;-0.224;2022-12-11T09:51:58;100766.04;;;1.97;42.46
76680;BME280;65597;51.520;-0.224;2022-12-11T09:54:16;100764.52;;;1.89;42.61
76680;BME280;65597;51.520;-0.224;2022-12-11T09:56:48;100766.88;;;1.74;42.34
76680;BME280;65597;51.520;-0.224;2022-12-11T09:59:12;100767.73;;;2.02;42.39
76680;BME280;65597;51.520;-0.224;2022-12-11T10:01:39;100765.35;;;2.04;42.42
76680;BME280;65597;51.520;-0.224;2022-12-11T10:04:11;100762.92;;;1.81;42.92
76680;BME280;65597;51.520;-0.224;2022-12-11T10:06:28;100763.53;;;2.46;42.63
76680;BME280;65597;51.520;-0.224;2022-12-11T10:08:59;100760.69;;;2.03;42.58
76680;BME280;65597;51.520;-0.224;2022-12-11T10:11:27;100760.73;;;2.02;42.74
76680;BME280;65597;51.520;-0.224;2022-12-11T10:13:47;100755.89;;;1.91;42.85
76680;BME280;65597;51.520;-0.224;2022-12-11T10:16:11;100758.92;;;2.10;42.49
76680;BME280;65597;51.520;-0.224;2022-12-11T10:18:33;100760.66;;;2.08;42.50
76680;BME280;65597;51.520;-0.224;2022-12-11T10:21:00;100762.39;;;2.12;42.47
76680;BME280;65597;51.520;-0.224;2022-12-11T10:23:28;100763.20;;;2.18;42.33
76680;BME280;65597;51.520;-0.224;2022-12-11T10:25:53;100760.00;;;2.13;42.35
76680;BME280;65597;51.520;-0.224;2022-12-11T10:28:18;100753.56;;;2.00;42.19
76680;BME280;65597;51.520;-0.224;2022-12-11T10:30:47;100754.25;;;2.26;42.13
76680;BME280;65597;51.520;-0.224;2022-12-11T10:33:12;100749.08;;;2.36;42.13
76680;BME280;65597;51.520;-0.224;2022-12-11T10:35:34;100743.97;;;2.34;42.27
76680;BME280;65597;51.520;-0.224;2022-12-11T10:38:00;100737.60;;;2.36;42.11
76680;BME280;65597;51.520;-0.224;2022-12-11T10:40:21;100730.71;;;2.29;42.25
76680;BME280;65597;51.520;-0.224;2022-12-11T10:42:51;100729.50;;;2.33;42.21
76680;BME280;65597;51.520;-0.224;2022-12-11T10:45:15;100733.62;;;2.43;42.12
76680;BME280;65597;51.520;-0.224;2022-12-11T10:47:38;100736.65;;;2.41;42.25
76680;BME280;65597;51.520;-0.224;2022-12-11T10:50:04;100739.35;;;2.52;42.12
76680;BME280;65597;51.520;-0.224;2022-12-11T10:52:32;100738.48;;;2.44;42.13
76680;BME280;65597;51.520;-0.224;2022-12-11T10:54:59;100738.48;;;1.88;42.25
76680;BME280;65597;51.520;-0.224;2022-12-11T10:57:28;100736.70;;;2.37;42.15
76680;BME280;65597;51.520;-0.224;2022-12-11T10:59:46;100736.38;;;2.37;42.05
76680;BME280;65597;51.520;-0.224;2022-12-11T11:02:17;100736.79;;;2.15;42.31
76680;BME280;65597;51.520;-0.224;2022-12-11T11:04:37;100737.85;;;2.47;42.16
76680;BME280;65597;51.520;-0.224;2022-12-11T11:07:07;100738.31;;;2.11;42.32
76680;BME280;65597;51.520;-0.224;2022-12-11T11:09:30;100735.08;;;2.18;42.64
76680;BME280;65597;51.520;-0.224;2022-12-11T11:11:52;100736.50;;;2.38;42.24
76680;BME280;65597;51.520;-0.224;2022-12-11T11:14:20;100735.38;;;2.43;42.01
76680;BME280;65597;51.520;-0.224;2022-12-11T11:16:44;100733.46;;;2.30;41.77
76680;BME280;65597;51.520;-0.224;2022-12-11T11:19:15;100725.31;;;2.32;41.96
76680;BME280;65597;51.520;-0.224;2022-12-11T11:21:34;100721.10;;;2.57;41.99
76680;BME280;65597;51.520;-0.224;2022-12-11T11:23:59;100717.78;;;2.73;41.88
76680;BME280;65597;51.520;-0.224;2022-12-11T11:26:24;100715.43;;;2.78;41.58
76680;BME280;65597;51.520;-0.224;2022-12-11T11:28:52;100716.15;;;2.77;41.70
76680;BME280;65597;51.520;-0.224;2022-12-11T11:31:29;100714.70;;;2.49;41.82
76680;BME280;65597;51.520;-0.224;2022-12-11T11:33:49;100710.23;;;2.53;41.68
76680;BME280;65597;51.520;-0.224;2022-12-11T11:38:34;100707.46;;;2.85;41.67
76680;BME280;65597;51.520;-0.224;2022-12-11T11:41:04;100704.54;;;2.65;41.98
76680;BME280;65597;51.520;-0.224;2022-12-11T11:43:28;100697.63;;;2.87;42.06
76680;BME280;65597;51.520;-0.224;2022-12-11T11:45:52;100697.56;;;2.42;42.06
76680;BME280;65597;51.520;-0.224;2022-12-11T11:48:23;100702.96;;;2.74;42.37
76680;BME280;65597;51.520;-0.224;2022-12-11T11:50:43;100702.60;;;2.56;42.25
76680;BME280;65597;51.520;-0.224;2022-12-11T11:53:07;100700.10;;;2.37;42.23
76680;BME280;65597;51.520;-0.224;2022-12-11T11:55:37;100695.50;;;2.90;42.33
76680;BME280;65597;51.520;-0.224;2022-12-11T11:57:57;100692.91;;;2.21;42.55
76680;BME280;65597;51.520;-0.224;2022-12-11T12:00:21;100686.48;;;2.19;42.60
76680;BME280;65597;51.520;-0.224;2022-12-11T12:02:45;100685.67;;;2.38;42.32
76680;BME280;65597;51.520;-0.224;2022-12-11T12:05:12;100686.03;;;2.37;42.56
76680;BME280;65597;51.520;-0.224;2022-12-11T12:07:41;100687.14;;;2.97;42.52
76680;BME280;65597;51.520;-0.224;2022-12-11T12:10:09;100685.13;;;2.37;42.81
76680;BME280;65597;51.520;-0.224;2022-12-11T12:12:34;100687.98;;;2.68;42.80
76680;BME280;65597;51.520;-0.224;2022-12-11T12:15:02;100690.49;;;2.46;42.87
76680;BME280;65597;51.520;-0.224;2022-12-11T12:17:25;100688.61;;;2.56;42.69
76680;BME280;65597;51.520;-0.224;2022-12-11T12:19:49;100688.60;;;2.78;42.88
76680;BME280;65597;51.520;-0.224;2022-12-11T12:22:18;100684.23;;;2.50;43.02
76680;BME280;65597;51.520;-0.224;2022-12-11T12:24:37;100683.81;;;2.51;42.99
76680;BME280;65597;51.520;-0.224;2022-12-11T12:27:01;100683.10;;;2.64;42.87
76680;BME280;65597;51.520;-0.224;2022-12-11T12:29:33;100679.23;;;2.64;42.92
76680;BME280;65597;51.520;-0.224;2022-12-11T12:31:59;100683.96;;;2.92;43.10
76680;BME280;65597;51.520;-0.224;2022-12-11T12:34:22;100683.88;;;2.69;43.09
76680;BME280;65597;51.520;-0.224;2022-12-11T12:36:45;100680.59;;;2.85;43.08
76680;BME280;65597;51.520;-0.224;2022-12-11T12:39:13;100678.65;;;3.01;42.89
76680;BME280;65597;51.520;-0.224;2022-12-11T12:41:40;100680.96;;;2.69;42.94
76680;BME280;65597;51.520;-0.224;2022-12-11T12:44:08;100679.01;;;3.02;43.01